Time;durP1;ratioP1;P1;durP2;ratioP2;P2;SDS_P1;SDS_P2;PMS_P1;PMS_P2;Temp;Humidity;BMP_temperature;BMP_pressure;BME280_temperature;BME280_humidity;BME280_pressure;Samples;Min_cycle;Max_cycle;Signal;HPM_P1;HPM_P2
2023/01/30 13:24:05;;;;;;;;;;;;;;;7.65;89.77;101940.63;4266894;28;1314464;-37
2023/01/30 13:29:38;;;;;;;;;;;;;;;7.64;87.56;101949.72;5095571;28;19957;-37
2023/01/30 13:32:25;;;;;;;;;;;;;;;7.62;87.28;101954.47;5095345;28;19951;-37
2023/01/30 13:34:55;;;;;;;;;;;;;;;7.63;88.69;101953.44;5070815;28;19908;-37
2023/01/30 13:40:24;;;;;;;;;;;;;;;7.64;90.26;101969.41;5095040;28;19915;-37
2023/01/30 13:42:59;;;;;;;;;;;;;;;7.68;90.17;101975.28;5095203;28;19908;-36
2023/01/30 13:45:30;;;;;;;;;;;;;;;7.65;87.83;101965.69;5094861;28;19955;-37
2023/01/30 13:48:14;;;;;;;;;;;;;;;7.66;87.30;101974.59;5094465;28;20018;-37
2023/01/30 13:50:45;;;;;;;;;;;;;;;7.66;87.97;101983.53;5077156;28;19907;-37
2023/01/30 13:53:18;;;;;;;;;;;;;;;7.65;87.54;101983.72;5095005;28;19908;-37
2023/01/30 13:55:54;;;;;;;;;;;;;;;7.65;87.31;101986.41;5094663;28;19911;-37
2023/01/30 13:58:23;;;;;;;;;;;;;;;7.63;88.54;101988.44;5094918;28;20247;-36
2023/01/30 14:00:53;;;;;;;;;;;;;;;7.63;88.33;101999.22;5094415;28;19908;-37
2023/01/30 14:03:22;;;;;;;;;;;;;;;7.64;88.92;102001.72;5094329;28;19977;-37
2023/01/30 14:05:51;;;;;;;;;;;;;;;7.61;88.19;102001.25;5094514;28;19908;-37
2023/01/30 14:08:18;;;;;;;;;;;;;;;7.62;88.43;102003.78;5094690;28;19950;-37
2023/01/30 14:10:44;;;;;;;;;;;;;;;7.62;88.92;102011.84;5094663;28;19912;-37
2023/01/30 14:13:12;;;;;;;;;;;;;;;7.60;88.24;102018.41;5094723;28;20229;-37
2023/01/30 14:15:39;;;;;;;;;;;;;;;7.60;87.77;102013.03;5094427;28;19961;-37
2023/01/30 14:18:23;;;;;;;;;;;;;;;7.56;87.56;102009.88;5095214;28;20140;-37
2023/01/30 14:20:50;;;;;;;;;;;;;;;7.57;88.28;102013.41;5094790;28;20000;-36
2023/01/30 14:23:42;;;;;;;;;;;;;;;7.56;89.91;102022.50;5093877;28;19977;-36
2023/01/30 14:26:07;;;;;;;;;;;;;;;7.55;90.04;102026.22;5091623;28;19912;-36
2023/01/30 14:28:43;;;;;;;;;;;;;;;7.53;89.66;102034.47;5094179;28;19931;-36
2023/01/30 14:31:28;;;;;;;;;;;;;;;7.55;89.86;102045.03;5100239;28;19908;-37
2023/01/30 14:33:54;;;;;;;;;;;;;;;7.54;89.56;102048.75;5098012;28;19916;-37
2023/01/30 14:36:19;;;;;;;;;;;;;;;7.51;89.87;102055.34;5094079;28;19915;-37
2023/01/30 14:38:55;;;;;;;;;;;;;;;7.49;88.51;102060.91;5094693;28;19914;-37
2023/01/30 14:41:24;;;;;;;;;;;;;;;7.50;90.61;102061.75;5094250;28;19908;-37
2023/01/30 14:43:50;;;;;;;;;;;;;;;7.49;90.29;102060.91;5094152;28;19908;-37
2023/01/30 14:46:16;;;;;;;;;;;;;;;7.51;90.99;102070.66;5094107;28;19907;-37
2023/01/30 14:48:41;;;;;;;;;;;;;;;7.49;91.58;102063.59;5094092;28;19908;-37
2023/01/30 14:51:28;;;;;;;;;;;;;;;7.48;90.10;102078.06;5094376;28;19912;-37
2023/01/30 14:53:54;;;;;;;;;;;;;;;7.51;89.95;102084.94;5094410;28;19912;-37
2023/01/30 14:56:31;;;;;;;;;;;;;;;7.51;91.08;102086.78;5094043;28;19931;-37
2023/01/30 14:59:01;;;;;;;;;;;;;;;7.50;91.91;102102.13;5094868;28;20311;-38
2023/01/30 15:01:26;;;;;;;;;;;;;;;7.50;91.01;102096.72;5094483;28;19908;-38
2023/01/30 15:03:51;;;;;;;;;;;;;;;7.46;90.44;102098.94;5094249;28;19914;-37
2023/01/30 15:06:18;;;;;;;;;;;;;;;7.42;90.86;102108.41;5093750;28;19908;-37
2023/01/30 15:08:44;;;;;;;;;;;;;;;7.37;91.06;102126.94;5127477;28;20346;-37
2023/01/30 15:11:12;;;;;;;;;;;;;;;7.34;91.23;102113.00;5094408;28;19960;-37
2023/01/30 15:13:40;;;;;;;;;;;;;;;7.32;91.37;102125.78;5093761;28;20026;-37
2023/01/30 15:16:05;;;;;;;;;;;;;;;7.31;91.64;102132.19;5093789;28;19908;-37
2023/01/30 15:18:41;;;;;;;;;;;;;;;7.27;91.20;102129.03;5093741;28;19911;-37
2023/01/30 15:21:15;;;;;;;;;;;;;;;7.28;92.18;102130.72;5093731;28;19908;-37
2023/01/30 15:23:40;;;;;;;;;;;;;;;7.25;92.55;102136.44;5094219;28;20007;-37
2023/01/30 15:26:08;;;;;;;;;;;;;;;7.24;92.45;102129.38;5094032;28;20346;-37
2023/01/30 15:29:02;;;;;;;;;;;;;;;7.24;92.29;102134.75;5094959;28;20041;-37
2023/01/30 15:31:27;;;;;;;;;;;;;;;7.22;92.85;102137.66;5112857;28;19961;-37
2023/01/30 15:33:53;;;;;;;;;;;;;;;7.19;92.31;102137.97;5093274;28;19912;-37
2023/01/30 15:36:18;;;;;;;;;;;;;;;7.18;92.90;102146.25;5097664;28;19908;-36
2023/01/30 15:38:44;;;;;;;;;;;;;;;7.17;92.78;102156.16;5097393;28;19915;-36
2023/01/30 15:41:09;;;;;;;;;;;;;;;7.16;92.37;102151.78;5097213;28;19931;-37
2023/01/30 15:43:52;;;;;;;;;;;;;;;7.14;93.59;102151.13;5097332;28;19914;-37
2023/01/30 15:46:17;;;;;;;;;;;;;;;7.11;93.00;102153.31;5097334;28;19912;-37
2023/01/30 15:49:06;;;;;;;;;;;;;;;7.10;93.22;102160.56;5098050;28;19919;-37
2023/01/30 15:51:32;;;;;;;;;;;;;;;7.10;92.98;102173.19;5042516;28;19908;-37
